Airfield :
LOGIN :

Register | Disclaimer

   EN    FR    IT 

 










Legend :    VFR   Marginal VFR   IFR   Intensive IFR   Very Intensive IFR
Visi :
Ceiling :
>= 8 km
>= 3000ft
5 to 8 km
1000 to 3000 ft
1500m to 5 km
500 to 1000 ft
800 to 1500m
200 to 500 ft
< 800m
< 200 ft
Symbols :   Thunderstorms  Fog  Heavy snow  Heavy precipitations  Wind > 20 kt
SIGMETs :     Misc.  Thunderstorms  Icing  Turbulence  Mountain Waves  Volcanic Ashes







- Airport Elevation : 913 ft
- Download approach charts


LFSX - Luxeuil

CURRENT METAR :
  • 181900Z AUTO VRB01KT CAVOK 11/07 Q1018 NOSIG

EXPIRED METARs :
  • 181830Z AUTO 22004KT CAVOK 12/07 Q1018 NOSIG
  • 181800Z AUTO 04004KT CAVOK 16/08 Q1018 NOSIG
  • 181730Z AUTO 06004KT CAVOK 19/08 Q1017 NOSIG
  • 181700Z AUTO 04007KT CAVOK 20/08 Q1017 NOSIG
  • 181630Z AUTO 02005KT CAVOK 22/07 Q1017 NOSIG
  • 181600Z AUTO 07008KT CAVOK 23/06 Q1016 NOSIG

TAF TAF LFSX
Valid from the 18 at 15:00 until the 19 at 15:00 UTC


181400Z 1815/1915 14005KT CAVOK
BECMG 1900/1902 4900 BR
TEMPO 1902/1907 0800 BCFG
No reported NOTAMs for that airfield.



MET'MAP, your aeronautical weather chart ! - Copyright ORBIFLY December 2007 - Disclaimer

ORBIFLY MET'MAP TEAM :

Programming & Development : Alexandra Zaïnal
Concept & Development : Baudouin d'Aumeries
Co-Development & Prog : Marc-Olivier Méhu
Technical & hardware support : Manuel Goepfert

Contact : metmap@orbifly.com




SOURCES & CREDITS :

   NOAA